EDTL

Lahr Airport

Germany
TAF EDTL 231100Z 2312/2321 02004KT CAVOK
Issued Valid From Valid To
Jul-23 @ 11:00 UTC
(3 hours ago)
Jul-23 @ 12:00 UTC
(2 hours ago)
Jul-23 @ 21:00 UTC
(in 7 hours)
Jul-23 @ 12:00 to Jul-23 @ 21:00
TAF EDTL 231100Z 2312/2321 02004KT CAVOK
Wind Visibility Clouds Conditions
20° at 4 knots 10,000+ meters
  • No significant clouds
TAF EDTL 231100Z 2312/2321 02004KT CAVOK
Issued Jul-23 @ 11:00 UTC
(3 hours ago)
Valid From Jul-23 @ 12:00 UTC
(2 hours ago)
Valid To Jul-23 @ 21:00 UTC
(in 7 hours)
Jul-23 @ 12:00 - Jul-23 @ 21:00
Wind Visibility
20° at 4 knots 10,000+ meters
Clouds
  • No significant clouds
Conditions